Map

Track Data

SID SEASON NUMBER BASIN SUBBASIN NAME ISO_TIME NATURE LAT LON WMO_WIND WMO_PRES WMO_AGENCY TRACK_TYPE DIST2LAND LANDFALL IFLAG USA_AGENCY USA_ATCF_ID USA_LAT USA_LON USA_RECORD USA_STATUS USA_WIND USA_PRES USA_SSHS USA_R34_NE USA_R34_SE USA_R34_SW USA_R34_NW USA_R50_NE USA_R50_SE USA_R50_SW USA_R50_NW USA_R64_NE USA_R64_SE USA_R64_SW USA_R64_NW USA_POCI USA_ROCI USA_RMW USA_EYE TOKYO_LAT TOKYO_LON TOKYO_GRADE TOKYO_WIND TOKYO_PRES TOKYO_R50_DIR TOKYO_R50_LONG TOKYO_R50_SHORT TOKYO_R30_DIR TOKYO_R30_LONG TOKYO_R30_SHORT TOKYO_LAND CMA_LAT CMA_LON CMA_CAT CMA_WIND CMA_PRES HKO_LAT HKO_LON HKO_CAT HKO_WIND HKO_PRES NEWDELHI_LAT NEWDELHI_LON NEWDELHI_GRADE NEWDELHI_WIND NEWDELHI_PRES NEWDELHI_CI NEWDELHI_DP NEWDELHI_POCI REUNION_LAT REUNION_LON REUNION_TYPE REUNION_WIND REUNION_PRES REUNION_TNUM REUNION_CI REUNION_RMW REUNION_R34_NE REUNION_R34_SE REUNION_R34_SW REUNION_R34_NW REUNION_R50_NE REUNION_R50_SE REUNION_R50_SW REUNION_R50_NW REUNION_R64_NE REUNION_R64_SE REUNION_R64_SW REUNION_R64_NW BOM_LAT BOM_LON BOM_TYPE BOM_WIND BOM_PRES BOM_TNUM BOM_CI BOM_RMW BOM_R34_NE BOM_R34_SE BOM_R34_SW BOM_R34_NW BOM_R50_NE BOM_R50_SE BOM_R50_SW BOM_R50_NW BOM_R64_NE BOM_R64_SE BOM_R64_SW BOM_R64_NW BOM_ROCI BOM_POCI BOM_EYE BOM_POS_METHOD BOM_PRES_METHOD NADI_LAT NADI_LON NADI_CAT NADI_WIND NADI_PRES WELLINGTON_LAT WELLINGTON_LON WELLINGTON_WIND WELLINGTON_PRES DS824_LAT DS824_LON DS824_STAGE DS824_WIND DS824_PRES TD9636_LAT TD9636_LON TD9636_STAGE TD9636_WIND TD9636_PRES TD9635_LAT TD9635_LON TD9635_WIND TD9635_PRES TD9635_ROCI NEUMANN_LAT NEUMANN_LON NEUMANN_CLASS NEUMANN_WIND NEUMANN_PRES MLC_LAT MLC_LON MLC_CLASS MLC_WIND MLC_PRES USA_GUST BOM_GUST BOM_GUST_PER REUNION_GUST REUNION_GUST_PER USA_SEAHGT USA_SEARAD_NE USA_SEARAD_SE USA_SEARAD_SW USA_SEARAD_NW STORM_SPEED STORM_DIR
1969294N11083 1969 104 NI BB NOT_NAMED 1969-10-20 18:00:00 TS 10.7000 82.6000 main 252 252 O________O____ jtwc_io IO111969 10.7000 82.6000 -1 10.7000 82.6000 TC 2 340
1969294N11083 1969 104 NI BB NOT_NAMED 1969-10-20 21:00:00 TS 10.8050 82.5625 main 259 250 P________P____ IO111969 10.8050 82.5625 -1 10.8050 82.5625 TC 2 333
1969294N11083 1969 104 NI BB NOT_NAMED 1969-10-21 00:00:00 TS 10.9000 82.5000 main 258 250 O________O____ jtwc_io IO111969 10.9000 82.5000 -1 10.9000 82.5000 TC 25 3 317
1969294N11083 1969 104 NI BB NOT_NAMED 1969-10-21 03:00:00 TS 10.9866 82.3888 main 258 251 P________PO___ IO111969 10.9850 82.3874 -1 10.9850 82.3874 TC 25 11.0000 82.4000 1 4 304
1969294N11083 1969 104 NI BB NOT_NAMED 1969-10-21 06:00:00 TS 11.1129 82.1838 main 251 218 O________OP___ jtwc_io IO111969 11.1000 82.2000 -1 11.1000 82.2000 TC 25 11.1643 82.1191 1 6 303
1969294N11083 1969 104 NI BB NOT_NAMED 1969-10-21 09:00:00 TS 11.3063 81.8865 main 218 188 P________PP___ IO111969 11.3001 81.9001 -1 11.3001 81.9001 TC 25 11.3228 81.8504 1 7 303
1969294N11083 1969 104 NI BB NOT_NAMED 1969-10-21 12:00:00 TS 11.4900 81.6021 main 188 164 O________OP___ jtwc_io IO111969 11.5000 81.6000 -1 11.5000 81.6000 TC 25 11.4699 81.6065 1 6 303
1969294N11083 1969 104 NI BB NOT_NAMED 1969-10-21 15:00:00 TS 11.6100 81.4183 main 164 149 P________PO___ IO111969 11.6149 81.4274 -1 11.6149 81.4274 TC 30 11.6000 81.4000 1 4 304
1969294N11083 1969 104 NI BB NOT_NAMED 1969-10-21 18:00:00 TS 11.7034 81.2796 main 149 125 O________OP___ jtwc_io IO111969 11.7000 81.3000 -1 11.7000 81.3000 TC 35 11.7102 81.2389 1 3 304
1969294N11083 1969 104 NI BB NOT_NAMED 1969-10-21 21:00:00 TS 11.8024 81.1324 main 125 109 P________PP___ IO111969 11.8000 81.1425 -1 11.8000 81.1425 TC 35 11.8073 81.1123 1 3 306
1969294N11083 1969 104 NI BB NOT_NAMED 1969-10-22 00:00:00 TS 11.9003 81.0015 main 109 94 O________OP___ jtwc_io IO111969 11.9000 81.0000 -1 11.9000 81.0000 TC 35 11.9008 81.0046 1 3 310
1969294N11083 1969 104 NI BB NOT_NAMED 1969-10-22 03:00:00 TS 11.9950 80.9000 main 94 79 P________PO___ IO111969 11.9925 80.9000 -1 11.9925 80.9000 TC 35 12.0000 80.9000 3 3 315
1969294N11083 1969 104 NI BB NOT_NAMED 1969-10-22 06:00:00 TS 12.1100 80.7890 main 79 63 O________OP___ jtwc_io IO111969 12.1000 80.8000 -1 12.1000 80.8000 TC 35 12.1300 80.7669 3 4 316
1969294N11083 1969 104 NI BB NOT_NAMED 1969-10-22 09:00:00 TS 12.2550 80.6450 main 48 34 P________PP___ IO111969 12.2500 80.6500 -1 12.2500 80.6500 TC 35 12.2650 80.6351 3 4 316
1969294N11083 1969 104 NI BB NOT_NAMED 1969-10-22 12:00:00 TS 12.3975 80.5036 main 34 21 O________OP___ jtwc_io IO111969 12.4000 80.5000 -1 12.4000 80.5000 TC 35 12.3925 80.5107 3 4 316
1969294N11083 1969 104 NI BB NOT_NAMED 1969-10-22 15:00:00 TS 12.5150 80.3900 main 21 10 P________PO___ IO111969 12.5225 80.3850 -1 12.5225 80.3850 TC 35 12.5000 80.4000 3 3 316
1969294N11083 1969 104 NI BB NOT_NAMED 1969-10-22 18:00:00 TS 12.5851 80.3116 main 10 10 O________OP___ jtwc_io IO111969 12.6000 80.3000 -1 12.6000 80.3000 TC 35 12.5552 80.3348 3 2 304
1969294N11083 1969 104 NI BB NOT_NAMED 1969-10-22 21:00:00 TS 12.5974 80.2599 main 10 0 P________PP___ IO111969 12.6000 80.2500 -1 12.6000 80.2500 TC 35 12.5923 80.2797 3 1 284
1969294N11083 1969 104 NI BB NOT_NAMED 1969-10-23 00:00:00 TS 12.6111 80.2033 main 0 0 O________OP___ jtwc_io IO111969 12.6000 80.2000 -1 12.6000 80.2000 TC 35 12.6333 80.2098 3 2 302
1969294N11083 1969 104 NI BB NOT_NAMED 1969-10-23 03:00:00 TS 12.6850 80.1200 main 0 0 P________PO___ IO111969 12.6775 80.1300 -1 12.6775 80.1300 TC 35 12.7000 80.1000 3 3 311
1969294N11083 1969 104 NI BB NOT_NAMED 1969-10-23 06:00:00 TS 12.8035 79.9729 main 0 0 O________OP___ jtwc_io IO111969 12.8000 80.0000 -1 12.8000 80.0000 TC 35 12.8086 79.9322 3 4 306
1969294N11083 1969 104 NI BB NOT_NAMED 1969-10-23 09:00:00 TS 12.9484 79.7510 main 0 0 P________PP___ IO111969 12.9451 79.7776 -1 12.9451 79.7776 TC 30 12.9528 79.7155 3 6 303
1969294N11083 1969 104 NI BB NOT_NAMED 1969-10-23 12:00:00 TS 13.1103 79.4830 main 0 0 O________OP___ jtwc_io IO111969 13.1000 79.5000 -1 13.1000 79.5000 TC 25 13.1206 79.4660 3 6 303
1969294N11083 1969 104 NI BB NOT_NAMED 1969-10-23 15:00:00 NR 13.3000 79.2000 main 0 __________O___ IO111969 -1 TC 13.3000 79.2000 1 7 305

About IBTrACS Database

This database is a web-friendly format of International Best Track Archive for Climate Stewardship (IBTrACS), a global best track data archive curated by NOAA dating back to 1842.

Updated: 2021-10-25